OB185 SPRU-SPYL
Flight info
| Callsign | OB185 |
|---|---|
| Flight time | 1h 46m |
| Altitude | 10000 |
| Route | TRU V1 URA |
| Aircraft | BE58/L-SDFGRY/C |
Departure
| Time | 2026-05-05 20:36 |
|---|---|
| Airport | Capitán FAP Carlos Martínez de Pinillos International Airport (SPRU) |
Arrival
| Time | 2026-05-05 22:22 |
|---|---|
| Airport | Captain Victor Montes Arias International Airport (SPYL) |
| Time | Latitude | Longitude | Altitude | Speed | Heading |
|---|---|---|---|---|---|
| 2026-05-05 20:21 | -8.08471 | -79.10800 | 102 ft | 0 kts | 198° |
| 2026-05-05 20:22 | -8.08472 | -79.10800 | 102 ft | 0 kts | 196° |
| 2026-05-05 20:23 | -8.08473 | -79.10800 | 102 ft | 0 kts | 195° |
| 2026-05-05 20:30 | -8.08465 | -79.10805 | 102 ft | 6 kts | 38° |
| 2026-05-05 20:30 | -8.08439 | -79.10845 | 101 ft | 5 kts | 280° |
| 2026-05-05 20:30 | -8.08462 | -79.10866 | 100 ft | 5 kts | 195° |
| 2026-05-05 20:31 | -8.08480 | -79.10896 | 100 ft | 5 kts | 285° |
| 2026-05-05 20:31 | -8.08476 | -79.10908 | 99 ft | 0 kts | 289° |
| 2026-05-05 20:31 | -8.08468 | -79.10934 | 99 ft | 6 kts | 289° |
| 2026-05-05 20:32 | -8.08433 | -79.10947 | 99 ft | 6 kts | 12° |
| 2026-05-05 20:32 | -8.08375 | -79.10929 | 101 ft | 10 kts | 19° |
| 2026-05-05 20:32 | -8.08292 | -79.10901 | 103 ft | 14 kts | 14° |
| 2026-05-05 20:32 | -8.08187 | -79.10870 | 106 ft | 16 kts | 17° |
| 2026-05-05 20:33 | -8.08067 | -79.10833 | 109 ft | 18 kts | 14° |
| 2026-05-05 20:33 | -8.07937 | -79.10792 | 113 ft | 20 kts | 18° |
| 2026-05-05 20:33 | -8.07798 | -79.10750 | 117 ft | 21 kts | 16° |
| 2026-05-05 20:33 | -8.07660 | -79.10706 | 119 ft | 17 kts | 13° |
| 2026-05-05 20:34 | -8.07595 | -79.10677 | 121 ft | 4 kts | 45° |
| 2026-05-05 20:34 | -8.07577 | -79.10648 | 123 ft | 4 kts | 64° |
| 2026-05-05 20:34 | -8.07556 | -79.10617 | 124 ft | 5 kts | 37° |
| 2026-05-05 20:34 | -8.07517 | -79.10603 | 126 ft | 6 kts | 17° |
| 2026-05-05 20:35 | -8.07471 | -79.10598 | 127 ft | 7 kts | 329° |
| 2026-05-05 20:35 | -8.07473 | -79.10648 | 125 ft | 9 kts | 206° |
| 2026-05-05 20:35 | -8.07668 | -79.10708 | 119 ft | 68 kts | 196° |
| 2026-05-05 20:35 | -8.08286 | -79.10899 | 253 ft | 100 kts | 195° |
| 2026-05-05 20:36 | -8.08937 | -79.11113 | 628 ft | 103 kts | 199° |
| 2026-05-05 20:36 | -8.09622 | -79.11390 | 1034 ft | 109 kts | 207° |
| 2026-05-05 20:36 | -8.10112 | -79.12017 | 1340 ft | 124 kts | 251° |
| 2026-05-05 20:36 | -8.10049 | -79.12880 | 1741 ft | 131 kts | 295° |
| 2026-05-05 20:37 | -8.09395 | -79.13505 | 2179 ft | 131 kts | 325° |
| 2026-05-05 20:37 | -8.08552 | -79.14078 | 2207 ft | 161 kts | 326° |
| 2026-05-05 20:37 | -8.07529 | -79.14704 | 2222 ft | 178 kts | 328° |
| 2026-05-05 20:37 | -8.06486 | -79.15334 | 2531 ft | 173 kts | 328° |
| 2026-05-05 20:38 | -8.05446 | -79.15963 | 2772 ft | 173 kts | 329° |
| 2026-05-05 20:38 | -8.04413 | -79.16586 | 3008 ft | 173 kts | 329° |
| 2026-05-05 20:38 | -8.03382 | -79.17210 | 3235 ft | 174 kts | 329° |
| 2026-05-05 20:38 | -8.02338 | -79.17841 | 3485 ft | 173 kts | 329° |
| 2026-05-05 20:39 | -8.01302 | -79.18465 | 3713 ft | 173 kts | 330° |
| 2026-05-05 20:39 | -8.00260 | -79.19095 | 3926 ft | 173 kts | 330° |
| 2026-05-05 20:39 | -7.99228 | -79.19717 | 4154 ft | 172 kts | 330° |
| 2026-05-05 20:39 | -7.98205 | -79.20335 | 4382 ft | 172 kts | 329° |
| 2026-05-05 20:40 | -7.97167 | -79.20962 | 4609 ft | 172 kts | 330° |
| 2026-05-05 20:40 | -7.96132 | -79.21587 | 4821 ft | 173 kts | 330° |
| 2026-05-05 20:40 | -7.95103 | -79.22208 | 5027 ft | 173 kts | 330° |
| 2026-05-05 20:40 | -7.94076 | -79.22828 | 5211 ft | 173 kts | 330° |
| 2026-05-05 20:41 | -7.93035 | -79.23456 | 5423 ft | 172 kts | 330° |
| 2026-05-05 20:41 | -7.92009 | -79.24075 | 5618 ft | 172 kts | 330° |
| 2026-05-05 20:41 | -7.90972 | -79.24702 | 5818 ft | 172 kts | 330° |
| 2026-05-05 20:41 | -7.89949 | -79.25319 | 6002 ft | 171 kts | 330° |
| 2026-05-05 20:42 | -7.88923 | -79.25938 | 6175 ft | 171 kts | 330° |
| 2026-05-05 20:42 | -7.87901 | -79.26556 | 6368 ft | 171 kts | 330° |
| 2026-05-05 20:42 | -7.86867 | -79.27180 | 6551 ft | 171 kts | 330° |
| 2026-05-05 20:42 | -7.85846 | -79.27796 | 6743 ft | 171 kts | 330° |
| 2026-05-05 20:43 | -7.84825 | -79.28413 | 6940 ft | 171 kts | 331° |
| 2026-05-05 20:43 | -7.83802 | -79.29031 | 7105 ft | 171 kts | 331° |
| 2026-05-05 20:43 | -7.82781 | -79.29647 | 7281 ft | 171 kts | 331° |
| 2026-05-05 20:43 | -7.81760 | -79.30263 | 7472 ft | 171 kts | 330° |
| 2026-05-05 20:44 | -7.80735 | -79.30882 | 7650 ft | 170 kts | 330° |
| 2026-05-05 20:44 | -7.79717 | -79.31496 | 7779 ft | 170 kts | 331° |
| 2026-05-05 20:44 | -7.78692 | -79.32116 | 7922 ft | 170 kts | 331° |
| 2026-05-05 20:44 | -7.77679 | -79.32727 | 8071 ft | 170 kts | 332° |
| 2026-05-05 20:45 | -7.75643 | -79.33955 | 8221 ft | 168 kts | 331° |
| 2026-05-05 20:45 | -7.74655 | -79.34553 | 8212 ft | 162 kts | 332° |
| 2026-05-05 20:45 | -7.73697 | -79.35132 | 8208 ft | 156 kts | 332° |
| 2026-05-05 20:46 | -7.72783 | -79.35685 | 8215 ft | 151 kts | 332° |
| 2026-05-05 20:46 | -7.71891 | -79.36224 | 8218 ft | 147 kts | 332° |
| 2026-05-05 20:46 | -7.71025 | -79.36749 | 8228 ft | 143 kts | 332° |
| 2026-05-05 20:46 | -7.70163 | -79.37270 | 8246 ft | 142 kts | 332° |
| 2026-05-05 20:47 | -7.69312 | -79.37784 | 8235 ft | 142 kts | 332° |
| 2026-05-05 20:47 | -7.68466 | -79.38296 | 8235 ft | 142 kts | 332° |
| 2026-05-05 20:47 | -7.67616 | -79.38809 | 8221 ft | 140 kts | 332° |
| 2026-05-05 20:47 | -7.66821 | -79.39291 | 8400 ft | 132 kts | 332° |
| 2026-05-05 20:48 | -7.66024 | -79.39775 | 8635 ft | 132 kts | 332° |
| 2026-05-05 20:48 | -7.65232 | -79.40253 | 8868 ft | 132 kts | 332° |
| 2026-05-05 20:48 | -7.64446 | -79.40730 | 9129 ft | 132 kts | 332° |
| 2026-05-05 20:48 | -7.63661 | -79.41205 | 9363 ft | 132 kts | 332° |
| 2026-05-05 20:49 | -7.62875 | -79.41681 | 9569 ft | 131 kts | 332° |
| 2026-05-05 20:49 | -7.62092 | -79.42156 | 9774 ft | 131 kts | 333° |
| 2026-05-05 20:49 | -7.61302 | -79.42633 | 9958 ft | 137 kts | 333° |
| 2026-05-05 20:49 | -7.60414 | -79.43166 | 9913 ft | 157 kts | 332° |
| 2026-05-05 20:50 | -7.59458 | -79.43742 | 9893 ft | 158 kts | 333° |
| 2026-05-05 20:50 | -7.58516 | -79.44311 | 9894 ft | 156 kts | 333° |
| 2026-05-05 20:50 | -7.57580 | -79.44876 | 9871 ft | 153 kts | 333° |
| 2026-05-05 20:50 | -7.56671 | -79.45427 | 9879 ft | 150 kts | 333° |
| 2026-05-05 20:51 | -7.55778 | -79.45966 | 9863 ft | 147 kts | 333° |
| 2026-05-05 20:51 | -7.54909 | -79.46492 | 9879 ft | 144 kts | 333° |
| 2026-05-05 20:51 | -7.54058 | -79.47006 | 9879 ft | 142 kts | 332° |
| 2026-05-05 20:51 | -7.53201 | -79.47523 | 9899 ft | 145 kts | 333° |
| 2026-05-05 20:52 | -7.52326 | -79.48051 | 9907 ft | 149 kts | 332° |
| 2026-05-05 20:52 | -7.51417 | -79.48599 | 9898 ft | 154 kts | 332° |
| 2026-05-05 20:52 | -7.50480 | -79.49164 | 9907 ft | 158 kts | 332° |
| 2026-05-05 20:52 | -7.49512 | -79.49747 | 9906 ft | 163 kts | 332° |
| 2026-05-05 20:53 | -7.48535 | -79.50336 | 9889 ft | 165 kts | 332° |
| 2026-05-05 20:53 | -7.47545 | -79.50933 | 9876 ft | 167 kts | 332° |
| 2026-05-05 20:53 | -7.46539 | -79.51539 | 9881 ft | 167 kts | 333° |
| 2026-05-05 20:53 | -7.45534 | -79.52145 | 9872 ft | 167 kts | 332° |
| 2026-05-05 20:54 | -7.44544 | -79.52742 | 9871 ft | 165 kts | 332° |
| 2026-05-05 20:54 | -7.43557 | -79.53338 | 9896 ft | 165 kts | 332° |
| 2026-05-05 20:54 | -7.42567 | -79.53933 | 9881 ft | 167 kts | 332° |
| 2026-05-05 20:54 | -7.41560 | -79.54539 | 9892 ft | 169 kts | 332° |
| 2026-05-05 20:55 | -7.40532 | -79.55159 | 9886 ft | 171 kts | 333° |
| 2026-05-05 20:55 | -7.39508 | -79.55776 | 9880 ft | 172 kts | 332° |
| 2026-05-05 20:55 | -7.38482 | -79.56393 | 9879 ft | 172 kts | 332° |
| 2026-05-05 20:55 | -7.37448 | -79.57016 | 9918 ft | 174 kts | 332° |
| 2026-05-05 20:56 | -7.36386 | -79.57655 | 9921 ft | 177 kts | 332° |
| 2026-05-05 20:56 | -7.35323 | -79.58295 | 9900 ft | 179 kts | 332° |
| 2026-05-05 20:56 | -7.34236 | -79.58949 | 9891 ft | 181 kts | 332° |
| 2026-05-05 20:56 | -7.33160 | -79.59597 | 9878 ft | 180 kts | 333° |
| 2026-05-05 20:57 | -7.31725 | -79.60461 | 9851 ft | 178 kts | 332° |
| 2026-05-05 20:57 | -7.31015 | -79.60889 | 9873 ft | 177 kts | 333° |
| 2026-05-05 20:57 | -7.29957 | -79.61526 | 9907 ft | 178 kts | 333° |
| 2026-05-05 20:57 | -7.28888 | -79.62170 | 9866 ft | 179 kts | 333° |
| 2026-05-05 20:58 | -7.27812 | -79.62817 | 9876 ft | 178 kts | 333° |
| 2026-05-05 20:58 | -7.26745 | -79.63460 | 9870 ft | 178 kts | 333° |
| 2026-05-05 20:58 | -7.25678 | -79.64101 | 9861 ft | 177 kts | 332° |
| 2026-05-05 20:58 | -7.24618 | -79.64740 | 9886 ft | 177 kts | 333° |
| 2026-05-05 20:59 | -7.23552 | -79.65382 | 9892 ft | 179 kts | 333° |
| 2026-05-05 20:59 | -7.22480 | -79.66027 | 9852 ft | 180 kts | 332° |
| 2026-05-05 20:59 | -7.21392 | -79.66682 | 9840 ft | 178 kts | 333° |
| 2026-05-05 20:59 | -7.20325 | -79.67324 | 9860 ft | 178 kts | 333° |
| 2026-05-05 21:00 | -7.19263 | -79.67964 | 9850 ft | 179 kts | 333° |
| 2026-05-05 21:00 | -7.18204 | -79.68601 | 9831 ft | 178 kts | 333° |
| 2026-05-05 21:00 | -7.17146 | -79.69237 | 9826 ft | 174 kts | 333° |
| 2026-05-05 21:00 | -7.16101 | -79.69867 | 9853 ft | 173 kts | 334° |
| 2026-05-05 21:01 | -7.15067 | -79.70490 | 9860 ft | 172 kts | 333° |
| 2026-05-05 21:01 | -7.14037 | -79.71110 | 9876 ft | 174 kts | 333° |
| 2026-05-05 21:01 | -7.12982 | -79.71744 | 9877 ft | 176 kts | 333° |
| 2026-05-05 21:01 | -7.11924 | -79.72380 | 9861 ft | 177 kts | 333° |
| 2026-05-05 21:02 | -7.10873 | -79.73013 | 9874 ft | 177 kts | 333° |
| 2026-05-05 21:02 | -7.09800 | -79.73659 | 9889 ft | 180 kts | 333° |
| 2026-05-05 21:02 | -7.08730 | -79.74302 | 9851 ft | 180 kts | 333° |
| 2026-05-05 21:02 | -7.07641 | -79.74957 | 9861 ft | 179 kts | 333° |
| 2026-05-05 21:03 | -7.06584 | -79.75593 | 9838 ft | 177 kts | 333° |
| 2026-05-05 21:03 | -7.05524 | -79.76231 | 9869 ft | 175 kts | 333° |
| 2026-05-05 21:03 | -7.04474 | -79.76863 | 9865 ft | 175 kts | 333° |
| 2026-05-05 21:03 | -7.03429 | -79.77492 | 9887 ft | 176 kts | 333° |
| 2026-05-05 21:04 | -7.02365 | -79.78132 | 9885 ft | 178 kts | 333° |
| 2026-05-05 21:04 | -7.01298 | -79.78773 | 9885 ft | 179 kts | 333° |
| 2026-05-05 21:04 | -7.00221 | -79.79421 | 9880 ft | 181 kts | 333° |
| 2026-05-05 21:04 | -6.99136 | -79.80074 | 9860 ft | 180 kts | 333° |
| 2026-05-05 21:05 | -6.98048 | -79.80727 | 9855 ft | 180 kts | 333° |
| 2026-05-05 21:05 | -6.96969 | -79.81376 | 9862 ft | 180 kts | 333° |
| 2026-05-05 21:05 | -6.95896 | -79.82022 | 9853 ft | 179 kts | 333° |
| 2026-05-05 21:05 | -6.94827 | -79.82664 | 9854 ft | 178 kts | 333° |
| 2026-05-05 21:06 | -6.93763 | -79.83305 | 9856 ft | 178 kts | 333° |
| 2026-05-05 21:06 | -6.92697 | -79.83946 | 9846 ft | 177 kts | 333° |
| 2026-05-05 21:06 | -6.91631 | -79.84586 | 9867 ft | 176 kts | 333° |
| 2026-05-05 21:06 | -6.90578 | -79.85220 | 9872 ft | 178 kts | 333° |
| 2026-05-05 21:07 | -6.89509 | -79.85864 | 9861 ft | 179 kts | 333° |
| 2026-05-05 21:07 | -6.88430 | -79.86512 | 9860 ft | 179 kts | 333° |
| 2026-05-05 21:07 | -6.87362 | -79.87154 | 9859 ft | 179 kts | 333° |
| 2026-05-05 21:07 | -6.86294 | -79.87797 | 9859 ft | 178 kts | 333° |
| 2026-05-05 21:08 | -6.85219 | -79.88444 | 9855 ft | 178 kts | 333° |
| 2026-05-05 21:08 | -6.84153 | -79.89085 | 9853 ft | 178 kts | 334° |
| 2026-05-05 21:08 | -6.83077 | -79.89731 | 9850 ft | 178 kts | 334° |
| 2026-05-05 21:08 | -6.82022 | -79.90366 | 9851 ft | 178 kts | 334° |
| 2026-05-05 21:09 | -6.80948 | -79.91011 | 9851 ft | 178 kts | 334° |
| 2026-05-05 21:09 | -6.79872 | -79.91657 | 9851 ft | 178 kts | 334° |
| 2026-05-05 21:09 | -6.78810 | -79.92296 | 9855 ft | 178 kts | 334° |
| 2026-05-05 21:09 | -6.77735 | -79.92942 | 9856 ft | 179 kts | 333° |
| 2026-05-05 21:10 | -6.76678 | -79.93578 | 9850 ft | 179 kts | 333° |
| 2026-05-05 21:10 | -6.75598 | -79.94227 | 9861 ft | 179 kts | 334° |
| 2026-05-05 21:10 | -6.74528 | -79.94870 | 9848 ft | 180 kts | 333° |
| 2026-05-05 21:10 | -6.73451 | -79.95518 | 9845 ft | 179 kts | 334° |
| 2026-05-05 21:11 | -6.72385 | -79.96159 | 9858 ft | 179 kts | 334° |
| 2026-05-05 21:11 | -6.71316 | -79.96801 | 9859 ft | 179 kts | 334° |
| 2026-05-05 21:11 | -6.70223 | -79.97459 | 9831 ft | 180 kts | 334° |
| 2026-05-05 21:11 | -6.69152 | -79.98102 | 9830 ft | 179 kts | 334° |
| 2026-05-05 21:12 | -6.68084 | -79.98744 | 9820 ft | 179 kts | 334° |
| 2026-05-05 21:12 | -6.67007 | -79.99391 | 9828 ft | 179 kts | 334° |
| 2026-05-05 21:12 | -6.65927 | -80.00040 | 9840 ft | 180 kts | 334° |
| 2026-05-05 21:12 | -6.64842 | -80.00692 | 9833 ft | 181 kts | 334° |
| 2026-05-05 21:13 | -6.63769 | -80.01337 | 9838 ft | 181 kts | 334° |
| 2026-05-05 21:13 | -6.62683 | -80.01990 | 9824 ft | 181 kts | 334° |
| 2026-05-05 21:13 | -6.61599 | -80.02640 | 9813 ft | 180 kts | 334° |
| 2026-05-05 21:13 | -6.60521 | -80.03289 | 9822 ft | 179 kts | 334° |
| 2026-05-05 21:14 | -6.59439 | -80.03940 | 9820 ft | 179 kts | 335° |
| 2026-05-05 21:14 | -6.58375 | -80.04578 | 9829 ft | 179 kts | 334° |
| 2026-05-05 21:14 | -6.57290 | -80.05231 | 9829 ft | 180 kts | 334° |
| 2026-05-05 21:14 | -6.56214 | -80.05876 | 9823 ft | 180 kts | 334° |
| 2026-05-05 21:15 | -6.55142 | -80.06522 | 9817 ft | 180 kts | 334° |
| 2026-05-05 21:15 | -6.54062 | -80.07171 | 9809 ft | 179 kts | 334° |
| 2026-05-05 21:15 | -6.52985 | -80.07818 | 9815 ft | 179 kts | 334° |
| 2026-05-05 21:15 | -6.51928 | -80.08453 | 9807 ft | 178 kts | 334° |
| 2026-05-05 21:16 | -6.50844 | -80.09104 | 9831 ft | 179 kts | 334° |
| 2026-05-05 21:16 | -6.49771 | -80.09748 | 9834 ft | 180 kts | 334° |
| 2026-05-05 21:16 | -6.48701 | -80.10392 | 9824 ft | 180 kts | 335° |
| 2026-05-05 21:16 | -6.47620 | -80.11041 | 9826 ft | 179 kts | 334° |
| 2026-05-05 21:17 | -6.46540 | -80.11691 | 9827 ft | 180 kts | 335° |
| 2026-05-05 21:17 | -6.45471 | -80.12332 | 9823 ft | 180 kts | 334° |
| 2026-05-05 21:17 | -6.44394 | -80.12979 | 9827 ft | 180 kts | 334° |
| 2026-05-05 21:17 | -6.43308 | -80.13631 | 9827 ft | 180 kts | 334° |
| 2026-05-05 21:18 | -6.42235 | -80.14277 | 9822 ft | 180 kts | 335° |
| 2026-05-05 21:18 | -6.41149 | -80.14929 | 9833 ft | 180 kts | 335° |
| 2026-05-05 21:18 | -6.40076 | -80.15573 | 9825 ft | 180 kts | 334° |
| 2026-05-05 21:18 | -6.38985 | -80.16228 | 9824 ft | 180 kts | 335° |
| 2026-05-05 21:19 | -6.37914 | -80.16873 | 9828 ft | 179 kts | 335° |
| 2026-05-05 21:19 | -6.36840 | -80.17518 | 9828 ft | 180 kts | 334° |
| 2026-05-05 21:19 | -6.35760 | -80.18166 | 9827 ft | 180 kts | 334° |
| 2026-05-05 21:19 | -6.34678 | -80.18816 | 9834 ft | 180 kts | 335° |
| 2026-05-05 21:20 | -6.33608 | -80.19459 | 9824 ft | 180 kts | 335° |
| 2026-05-05 21:20 | -6.32536 | -80.20104 | 9833 ft | 180 kts | 335° |
| 2026-05-05 21:20 | -6.31450 | -80.20756 | 9835 ft | 180 kts | 334° |
| 2026-05-05 21:20 | -6.30359 | -80.21411 | 9832 ft | 181 kts | 335° |
| 2026-05-05 21:21 | -6.29284 | -80.22057 | 9837 ft | 181 kts | 335° |
| 2026-05-05 21:21 | -6.28196 | -80.22710 | 9835 ft | 181 kts | 335° |
| 2026-05-05 21:21 | -6.27110 | -80.23362 | 9834 ft | 180 kts | 335° |
| 2026-05-05 21:21 | -6.26037 | -80.24007 | 9838 ft | 181 kts | 335° |
| 2026-05-05 21:22 | -6.24945 | -80.24662 | 9842 ft | 181 kts | 335° |
| 2026-05-05 21:22 | -6.23871 | -80.25307 | 9836 ft | 181 kts | 334° |
| 2026-05-05 21:22 | -6.22780 | -80.25963 | 9838 ft | 180 kts | 335° |
| 2026-05-05 21:22 | -6.21706 | -80.26608 | 9831 ft | 180 kts | 335° |
| 2026-05-05 21:23 | -6.20632 | -80.27253 | 9834 ft | 180 kts | 335° |
| 2026-05-05 21:23 | -6.19558 | -80.27898 | 9824 ft | 180 kts | 335° |
| 2026-05-05 21:23 | -6.18474 | -80.28550 | 9835 ft | 180 kts | 335° |
| 2026-05-05 21:23 | -6.17399 | -80.29195 | 9843 ft | 180 kts | 335° |
| 2026-05-05 21:24 | -6.16311 | -80.29848 | 9849 ft | 180 kts | 335° |
| 2026-05-05 21:24 | -6.15233 | -80.30496 | 9871 ft | 179 kts | 335° |
| 2026-05-05 21:24 | -6.14164 | -80.31138 | 9886 ft | 179 kts | 335° |
| 2026-05-05 21:24 | -6.13085 | -80.31786 | 9908 ft | 179 kts | 335° |
| 2026-05-05 21:25 | -6.12011 | -80.32432 | 9938 ft | 179 kts | 335° |
| 2026-05-05 21:25 | -6.10938 | -80.33076 | 9966 ft | 178 kts | 335° |
| 2026-05-05 21:25 | -6.09872 | -80.33717 | 9988 ft | 178 kts | 335° |
| 2026-05-05 21:25 | -6.08806 | -80.34358 | 10007 ft | 178 kts | 335° |
| 2026-05-05 21:26 | -6.07740 | -80.34999 | 10030 ft | 178 kts | 336° |
| 2026-05-05 21:26 | -6.06678 | -80.35636 | 10052 ft | 178 kts | 335° |
| 2026-05-05 21:26 | -6.05598 | -80.36285 | 10066 ft | 178 kts | 335° |
| 2026-05-05 21:26 | -6.04542 | -80.36919 | 10074 ft | 178 kts | 335° |
| 2026-05-05 21:27 | -6.03469 | -80.37563 | 10086 ft | 179 kts | 335° |
| 2026-05-05 21:27 | -6.02394 | -80.38208 | 10100 ft | 179 kts | 335° |
| 2026-05-05 21:27 | -6.01319 | -80.38854 | 10120 ft | 180 kts | 335° |
| 2026-05-05 21:27 | -6.00243 | -80.39500 | 10136 ft | 180 kts | 336° |
| 2026-05-05 21:28 | -5.99166 | -80.40147 | 10155 ft | 180 kts | 335° |
| 2026-05-05 21:28 | -5.98089 | -80.40794 | 10180 ft | 179 kts | 336° |
| 2026-05-05 21:28 | -5.97007 | -80.41444 | 10203 ft | 179 kts | 335° |
| 2026-05-05 21:28 | -5.95935 | -80.42088 | 10228 ft | 179 kts | 335° |
| 2026-05-05 21:29 | -5.94870 | -80.42728 | 10202 ft | 182 kts | 336° |
| 2026-05-05 21:29 | -5.93750 | -80.43398 | 10105 ft | 188 kts | 335° |
| 2026-05-05 21:29 | -5.92619 | -80.44076 | 10011 ft | 191 kts | 335° |
| 2026-05-05 21:29 | -5.91470 | -80.44764 | 9927 ft | 192 kts | 335° |
| 2026-05-05 21:30 | -5.90312 | -80.45458 | 9853 ft | 193 kts | 335° |
| 2026-05-05 21:30 | -5.89149 | -80.46156 | 9784 ft | 194 kts | 335° |
| 2026-05-05 21:30 | -5.87987 | -80.46852 | 9725 ft | 194 kts | 334° |
| 2026-05-05 21:30 | -5.86823 | -80.47551 | 9662 ft | 194 kts | 334° |
| 2026-05-05 21:31 | -5.85665 | -80.48246 | 9595 ft | 194 kts | 334° |
| 2026-05-05 21:31 | -5.84489 | -80.48953 | 9533 ft | 194 kts | 335° |
| 2026-05-05 21:31 | -5.83338 | -80.49642 | 9474 ft | 194 kts | 334° |
| 2026-05-05 21:31 | -5.82174 | -80.50342 | 9412 ft | 194 kts | 335° |
| 2026-05-05 21:32 | -5.81008 | -80.51041 | 9354 ft | 193 kts | 334° |
| 2026-05-05 21:32 | -5.79845 | -80.51738 | 9303 ft | 193 kts | 334° |
| 2026-05-05 21:32 | -5.78732 | -80.52408 | 9207 ft | 178 kts | 334° |
| 2026-05-05 21:32 | -5.77702 | -80.53031 | 9006 ft | 169 kts | 334° |
| 2026-05-05 21:33 | -5.76700 | -80.53635 | 8768 ft | 164 kts | 334° |
| 2026-05-05 21:33 | -5.75738 | -80.54214 | 8516 ft | 161 kts | 335° |
| 2026-05-05 21:33 | -5.74782 | -80.54788 | 8258 ft | 158 kts | 334° |
| 2026-05-05 21:33 | -5.73834 | -80.55359 | 7997 ft | 157 kts | 334° |
| 2026-05-05 21:34 | -5.72894 | -80.55924 | 7733 ft | 156 kts | 334° |
| 2026-05-05 21:34 | -5.71960 | -80.56484 | 7471 ft | 155 kts | 334° |
| 2026-05-05 21:34 | -5.71050 | -80.57032 | 7305 ft | 148 kts | 334° |
| 2026-05-05 21:34 | -5.70187 | -80.57552 | 7126 ft | 143 kts | 333° |
| 2026-05-05 21:35 | -5.69322 | -80.58073 | 6942 ft | 148 kts | 334° |
| 2026-05-05 21:35 | -5.68414 | -80.58617 | 6808 ft | 153 kts | 332° |
| 2026-05-05 21:35 | -5.67482 | -80.59177 | 6686 ft | 156 kts | 332° |
| 2026-05-05 21:35 | -5.66549 | -80.59737 | 6578 ft | 156 kts | 333° |
| 2026-05-05 21:36 | -5.65617 | -80.60297 | 6486 ft | 157 kts | 332° |
| 2026-05-05 21:36 | -5.64670 | -80.60866 | 6384 ft | 156 kts | 332° |
| 2026-05-05 21:36 | -5.63753 | -80.61418 | 6355 ft | 154 kts | 332° |
| 2026-05-05 21:36 | -5.62805 | -80.61987 | 6367 ft | 160 kts | 331° |
| 2026-05-05 21:37 | -5.61835 | -80.62569 | 6370 ft | 164 kts | 332° |
| 2026-05-05 21:37 | -5.60842 | -80.63165 | 6374 ft | 167 kts | 331° |
| 2026-05-05 21:37 | -5.59827 | -80.63775 | 6385 ft | 170 kts | 332° |
| 2026-05-05 21:37 | -5.58800 | -80.64392 | 6374 ft | 172 kts | 331° |
| 2026-05-05 21:38 | -5.57764 | -80.65014 | 6377 ft | 174 kts | 332° |
| 2026-05-05 21:38 | -5.56719 | -80.65642 | 6370 ft | 175 kts | 332° |
| 2026-05-05 21:38 | -5.55663 | -80.66275 | 6368 ft | 175 kts | 332° |
| 2026-05-05 21:38 | -5.54616 | -80.66904 | 6371 ft | 175 kts | 332° |
| 2026-05-05 21:39 | -5.53571 | -80.67532 | 6374 ft | 175 kts | 332° |
| 2026-05-05 21:39 | -5.52526 | -80.68160 | 6381 ft | 175 kts | 332° |
| 2026-05-05 21:39 | -5.51476 | -80.68790 | 6372 ft | 175 kts | 331° |
| 2026-05-05 21:39 | -5.50432 | -80.69417 | 6371 ft | 175 kts | 332° |
| 2026-05-05 21:40 | -5.49374 | -80.70052 | 6370 ft | 175 kts | 332° |
| 2026-05-05 21:40 | -5.48333 | -80.70676 | 6372 ft | 174 kts | 331° |
| 2026-05-05 21:40 | -5.47297 | -80.71300 | 6372 ft | 174 kts | 331° |
| 2026-05-05 21:40 | -5.46250 | -80.71928 | 6369 ft | 174 kts | 332° |
| 2026-05-05 21:41 | -5.45210 | -80.72553 | 6378 ft | 174 kts | 331° |
| 2026-05-05 21:41 | -5.44154 | -80.73187 | 6374 ft | 175 kts | 331° |
| 2026-05-05 21:41 | -5.43110 | -80.73814 | 6370 ft | 175 kts | 332° |
| 2026-05-05 21:41 | -5.42055 | -80.74448 | 6362 ft | 175 kts | 331° |
| 2026-05-05 21:42 | -5.41008 | -80.75078 | 6364 ft | 174 kts | 332° |
| 2026-05-05 21:42 | -5.39966 | -80.75704 | 6367 ft | 174 kts | 332° |
| 2026-05-05 21:42 | -5.38934 | -80.76324 | 6369 ft | 174 kts | 331° |
| 2026-05-05 21:42 | -5.37889 | -80.76952 | 6376 ft | 173 kts | 331° |
| 2026-05-05 21:43 | -5.36847 | -80.77578 | 6377 ft | 174 kts | 331° |
| 2026-05-05 21:43 | -5.35802 | -80.78205 | 6375 ft | 174 kts | 331° |
| 2026-05-05 21:43 | -5.34758 | -80.78832 | 6372 ft | 174 kts | 331° |
| 2026-05-05 21:43 | -5.33729 | -80.79451 | 6380 ft | 174 kts | 331° |
| 2026-05-05 21:44 | -5.32680 | -80.80082 | 6375 ft | 174 kts | 331° |
| 2026-05-05 21:44 | -5.31639 | -80.80707 | 6375 ft | 174 kts | 331° |
| 2026-05-05 21:44 | -5.30582 | -80.81342 | 6373 ft | 174 kts | 330° |
| 2026-05-05 21:44 | -5.29552 | -80.81961 | 6381 ft | 174 kts | 330° |
| 2026-05-05 21:45 | -5.28508 | -80.82589 | 6389 ft | 174 kts | 331° |
| 2026-05-05 21:45 | -5.27466 | -80.83216 | 6382 ft | 175 kts | 331° |
| 2026-05-05 21:45 | -5.26408 | -80.83852 | 6383 ft | 175 kts | 331° |
| 2026-05-05 21:45 | -5.25362 | -80.84481 | 6373 ft | 175 kts | 331° |
| 2026-05-05 21:46 | -5.24325 | -80.85104 | 6376 ft | 174 kts | 331° |
| 2026-05-05 21:46 | -5.23273 | -80.85737 | 6378 ft | 175 kts | 331° |
| 2026-05-05 21:46 | -5.22243 | -80.86356 | 6163 ft | 168 kts | 331° |
| 2026-05-05 21:46 | -5.21267 | -80.86943 | 5919 ft | 163 kts | 330° |
| 2026-05-05 21:47 | -5.20299 | -80.87526 | 5718 ft | 157 kts | 331° |
| 2026-05-05 21:47 | -5.19379 | -80.88081 | 5576 ft | 150 kts | 330° |
| 2026-05-05 21:47 | -5.18473 | -80.88625 | 5462 ft | 155 kts | 330° |
| 2026-05-05 21:47 | -5.17532 | -80.89192 | 5367 ft | 158 kts | 330° |
| 2026-05-05 21:48 | -5.16577 | -80.89767 | 5281 ft | 159 kts | 330° |
| 2026-05-05 21:48 | -5.15630 | -80.90337 | 5209 ft | 159 kts | 330° |
| 2026-05-05 21:48 | -5.14676 | -80.90911 | 5122 ft | 159 kts | 330° |
| 2026-05-05 21:48 | -5.13715 | -80.91490 | 5032 ft | 159 kts | 330° |
| 2026-05-05 21:49 | -5.12770 | -80.92059 | 4946 ft | 159 kts | 330° |
| 2026-05-05 21:49 | -5.11811 | -80.92636 | 4863 ft | 159 kts | 330° |
| 2026-05-05 21:49 | -5.10858 | -80.93210 | 4786 ft | 159 kts | 330° |
| 2026-05-05 21:49 | -5.09911 | -80.93780 | 4714 ft | 159 kts | 330° |
| 2026-05-05 21:50 | -5.08946 | -80.94361 | 4645 ft | 160 kts | 329° |
| 2026-05-05 21:50 | -5.07987 | -80.94938 | 4546 ft | 162 kts | 329° |
| 2026-05-05 21:50 | -5.07029 | -80.95515 | 4398 ft | 159 kts | 329° |
| 2026-05-05 21:50 | -5.06083 | -80.96084 | 4245 ft | 157 kts | 329° |
| 2026-05-05 21:51 | -5.05931 | -80.96175 | 4219 ft | 157 kts | 329° |
| 2026-05-05 21:58 | -5.05105 | -80.96674 | 4080 ft | 157 kts | 329° |
| 2026-05-05 21:59 | -5.04166 | -80.97240 | 3922 ft | 157 kts | 329° |
| 2026-05-05 21:59 | -5.03236 | -80.97800 | 3761 ft | 157 kts | 329° |
| 2026-05-05 21:59 | -5.01976 | -80.98558 | 3552 ft | 156 kts | 328° |
| 2026-05-05 21:59 | -5.01371 | -80.98933 | 3448 ft | 156 kts | 322° |
| 2026-05-05 22:00 | -5.00582 | -80.99672 | 3283 ft | 156 kts | 324° |
| 2026-05-05 22:00 | -4.99671 | -81.00241 | 3123 ft | 150 kts | 328° |
| 2026-05-05 22:00 | -4.98722 | -81.00666 | 2935 ft | 148 kts | 345° |
| 2026-05-05 22:00 | -4.97731 | -81.00893 | 2938 ft | 146 kts | 347° |
| 2026-05-05 22:01 | -4.96723 | -81.01115 | 2945 ft | 149 kts | 347° |
| 2026-05-05 22:01 | -4.95705 | -81.01342 | 2952 ft | 152 kts | 347° |
| 2026-05-05 22:01 | -4.94650 | -81.01578 | 2951 ft | 154 kts | 347° |
| 2026-05-05 22:01 | -4.93236 | -81.01897 | 2949 ft | 157 kts | 347° |
| 2026-05-05 22:02 | -4.92520 | -81.02062 | 2950 ft | 158 kts | 347° |
| 2026-05-05 22:02 | -4.91438 | -81.02309 | 2947 ft | 159 kts | 347° |
| 2026-05-05 22:02 | -4.90350 | -81.02557 | 2946 ft | 159 kts | 347° |
| 2026-05-05 22:02 | -4.88900 | -81.02885 | 2947 ft | 159 kts | 347° |
| 2026-05-05 22:03 | -4.88182 | -81.03046 | 2946 ft | 159 kts | 347° |
| 2026-05-05 22:03 | -4.87103 | -81.03289 | 2946 ft | 158 kts | 347° |
| 2026-05-05 22:03 | -4.86023 | -81.03532 | 2946 ft | 158 kts | 347° |
| 2026-05-05 22:03 | -4.84944 | -81.03771 | 2957 ft | 157 kts | 347° |
| 2026-05-05 22:04 | -4.83870 | -81.04010 | 2960 ft | 158 kts | 347° |
| 2026-05-05 22:04 | -4.82413 | -81.04333 | 2958 ft | 159 kts | 347° |
| 2026-05-05 22:04 | -4.81699 | -81.04491 | 2955 ft | 159 kts | 347° |
| 2026-05-05 22:04 | -4.80631 | -81.04827 | 2952 ft | 159 kts | 335° |
| 2026-05-05 22:05 | -4.79697 | -81.05418 | 2954 ft | 157 kts | 315° |
| 2026-05-05 22:05 | -4.78928 | -81.06177 | 2949 ft | 154 kts | 313° |
| 2026-05-05 22:05 | -4.77924 | -81.07136 | 2949 ft | 142 kts | 318° |
| 2026-05-05 22:05 | -4.77198 | -81.07761 | 2947 ft | 135 kts | 317° |
| 2026-05-05 22:06 | -4.76476 | -81.08379 | 2953 ft | 135 kts | 318° |
| 2026-05-05 22:06 | -4.75760 | -81.08998 | 2954 ft | 137 kts | 318° |
| 2026-05-05 22:06 | -4.75027 | -81.09632 | 2954 ft | 138 kts | 317° |
| 2026-05-05 22:06 | -4.74539 | -81.10050 | 2954 ft | 139 kts | 320° |
| 2026-05-05 22:07 | -4.73738 | -81.10606 | 2953 ft | 140 kts | 325° |
| 2026-05-05 22:07 | -4.72916 | -81.11137 | 2950 ft | 140 kts | 326° |
| 2026-05-05 22:07 | -4.71885 | -81.11935 | 2948 ft | 140 kts | 314° |
| 2026-05-05 22:07 | -4.71195 | -81.12612 | 2952 ft | 140 kts | 315° |
| 2026-05-05 22:08 | -4.70456 | -81.13262 | 2952 ft | 141 kts | 317° |
| 2026-05-05 22:08 | -4.69708 | -81.13908 | 2954 ft | 141 kts | 317° |
| 2026-05-05 22:08 | -4.69200 | -81.14345 | 2953 ft | 142 kts | 318° |
| 2026-05-05 22:08 | -4.68205 | -81.15202 | 2950 ft | 142 kts | 316° |
| 2026-05-05 22:09 | -4.67489 | -81.15880 | 2947 ft | 141 kts | 314° |
| 2026-05-05 22:09 | -4.66786 | -81.16569 | 2947 ft | 140 kts | 314° |
| 2026-05-05 22:09 | -4.66080 | -81.17267 | 2946 ft | 140 kts | 314° |
| 2026-05-05 22:09 | -4.65387 | -81.17952 | 2945 ft | 140 kts | 314° |
| 2026-05-05 22:10 | -4.64692 | -81.18634 | 2950 ft | 140 kts | 314° |
| 2026-05-05 22:10 | -4.63992 | -81.19322 | 2951 ft | 141 kts | 314° |
| 2026-05-05 22:10 | -4.63285 | -81.20018 | 2950 ft | 141 kts | 314° |
| 2026-05-05 22:10 | -4.62589 | -81.20705 | 2948 ft | 141 kts | 313° |
| 2026-05-05 22:11 | -4.61893 | -81.21393 | 2950 ft | 141 kts | 314° |
| 2026-05-05 22:11 | -4.61191 | -81.22084 | 2952 ft | 141 kts | 314° |
| 2026-05-05 22:11 | -4.60479 | -81.22780 | 2952 ft | 141 kts | 314° |
| 2026-05-05 22:11 | -4.59776 | -81.23469 | 2951 ft | 142 kts | 314° |
| 2026-05-05 22:12 | -4.59306 | -81.23927 | 2950 ft | 142 kts | 314° |
| 2026-05-05 22:12 | -4.58601 | -81.24609 | 2945 ft | 136 kts | 314° |
| 2026-05-05 22:12 | -4.57951 | -81.25234 | 2886 ft | 124 kts | 315° |
| 2026-05-05 22:12 | -4.57336 | -81.25827 | 2756 ft | 124 kts | 314° |
| 2026-05-05 22:13 | -4.56460 | -81.26668 | 2582 ft | 134 kts | 314° |
| 2026-05-05 22:13 | -4.55766 | -81.27332 | 2421 ft | 142 kts | 314° |
| 2026-05-05 22:13 | -4.55032 | -81.28033 | 2179 ft | 148 kts | 314° |
| 2026-05-05 22:13 | -4.54295 | -81.28728 | 1913 ft | 145 kts | 314° |
| 2026-05-05 22:14 | -4.53553 | -81.29408 | 1699 ft | 143 kts | 314° |
| 2026-05-05 22:14 | -4.52817 | -81.30072 | 1524 ft | 138 kts | 314° |
| 2026-05-05 22:14 | -4.52137 | -81.30681 | 1517 ft | 122 kts | 314° |
| 2026-05-05 22:14 | -4.51508 | -81.31239 | 1534 ft | 123 kts | 314° |
| 2026-05-05 22:15 | -4.50848 | -81.31837 | 1537 ft | 132 kts | 314° |
| 2026-05-05 22:15 | -4.50384 | -81.32258 | 1537 ft | 137 kts | 314° |
| 2026-05-05 22:15 | -4.50247 | -81.32383 | 1535 ft | 138 kts | 314° |
| 2026-05-05 22:15 | -4.49550 | -81.32999 | 1556 ft | 142 kts | 319° |
| 2026-05-05 22:16 | -4.48625 | -81.33400 | 1564 ft | 148 kts | 353° |
| 2026-05-05 22:16 | -4.47602 | -81.33201 | 1563 ft | 152 kts | 28° |
| 2026-05-05 22:16 | -4.46733 | -81.32602 | 1564 ft | 154 kts | 41° |
| 2026-05-05 22:16 | -4.45976 | -81.31834 | 1561 ft | 154 kts | 57° |
| 2026-05-05 22:17 | -4.45535 | -81.30866 | 1560 ft | 152 kts | 81° |
| 2026-05-05 22:17 | -4.45494 | -81.29830 | 1562 ft | 149 kts | 102° |
| 2026-05-05 22:17 | -4.45834 | -81.28857 | 1559 ft | 146 kts | 125° |
| 2026-05-05 22:17 | -4.46513 | -81.28123 | 1554 ft | 143 kts | 147° |
| 2026-05-05 22:18 | -4.47393 | -81.27699 | 1547 ft | 133 kts | 166° |
| 2026-05-05 22:18 | -4.48229 | -81.27483 | 1455 ft | 117 kts | 168° |
| 2026-05-05 22:18 | -4.48979 | -81.27294 | 1288 ft | 101 kts | 169° |
| 2026-05-05 22:18 | -4.49658 | -81.27109 | 1134 ft | 99 kts | 164° |
| 2026-05-05 22:19 | -4.50290 | -81.26856 | 995 ft | 95 kts | 162° |
| 2026-05-05 22:19 | -4.50900 | -81.26660 | 906 ft | 91 kts | 168° |
| 2026-05-05 22:19 | -4.51307 | -81.26558 | 893 ft | 88 kts | 170° |
| 2026-05-05 22:19 | -4.52119 | -81.26388 | 836 ft | 90 kts | 171° |
| 2026-05-05 22:20 | -4.52747 | -81.26294 | 803 ft | 91 kts | 176° |
| 2026-05-05 22:20 | -4.53373 | -81.26179 | 820 ft | 89 kts | 169° |
| 2026-05-05 22:20 | -4.53967 | -81.26057 | 801 ft | 89 kts | 174° |
| 2026-05-05 22:20 | -4.54588 | -81.25955 | 750 ft | 90 kts | 172° |
| 2026-05-05 22:21 | -4.55229 | -81.25829 | 584 ft | 93 kts | 173° |
| 2026-05-05 22:21 | -4.55868 | -81.25724 | 437 ft | 90 kts | 172° |
| 2026-05-05 22:21 | -4.56471 | -81.25615 | 334 ft | 86 kts | 173° |
| 2026-05-05 22:21 | -4.57038 | -81.25513 | 284 ft | 76 kts | 176° |
| 2026-05-05 22:22 | -4.57537 | -81.25435 | 272 ft | 68 kts | 161° |
| 2026-05-05 22:22 | -4.57783 | -81.25386 | 271 ft | 20 kts | 172° |
| 2026-05-05 22:22 | -4.57904 | -81.25365 | 272 ft | 14 kts | 172° |
| 2026-05-05 22:22 | -4.58049 | -81.25340 | 272 ft | 26 kts | 168° |
| 2026-05-05 22:23 | -4.58223 | -81.25307 | 272 ft | 23 kts | 167° |
| 2026-05-05 22:23 | -4.58407 | -81.25281 | 273 ft | 24 kts | 173° |
| 2026-05-05 22:23 | -4.58547 | -81.25253 | 275 ft | 17 kts | 170° |
| 2026-05-05 22:23 | -4.58656 | -81.25232 | 275 ft | 14 kts | 157° |
| 2026-05-05 22:24 | -4.58737 | -81.25212 | 275 ft | 10 kts | 244° |
| 2026-05-05 22:24 | -4.58689 | -81.25227 | 275 ft | 9 kts | 356° |
| 2026-05-05 22:24 | -4.58582 | -81.25246 | 275 ft | 32 kts | 348° |
| 2026-05-05 22:24 | -4.58219 | -81.25315 | 272 ft | 66 kts | 349° |
| 2026-05-05 22:25 | -4.57820 | -81.25384 | 272 ft | 37 kts | 353° |
| 2026-05-05 22:25 | -4.57656 | -81.25410 | 271 ft | 19 kts | 351° |
| 2026-05-05 22:25 | -4.57566 | -81.25431 | 272 ft | 9 kts | 323° |
| 2026-05-05 22:25 | -4.57567 | -81.25492 | 271 ft | 8 kts | 259° |
| 2026-05-05 22:26 | -4.57553 | -81.25539 | 271 ft | 7 kts | 345° |
| 2026-05-05 22:26 | -4.57506 | -81.25556 | 271 ft | 6 kts | 276° |
| 2026-05-05 22:26 | -4.57510 | -81.25576 | 273 ft | 3 kts | 256° |
| 2026-05-05 22:26 | -4.57530 | -81.25582 | 273 ft | 4 kts | 168° |
| 2026-05-05 22:27 | -4.57556 | -81.25578 | 273 ft | 0 kts | 169° |